createdAt,value
2022-09-21T00:03:55.188Z,0.2
2022-09-21T00:08:55.103Z,0.2
2022-09-21T00:13:54.796Z,0.2
2022-09-21T00:18:54.183Z,0.2
2022-09-21T00:23:59.506Z,0.2
2022-09-21T00:28:51.534Z,0.2
2022-09-21T00:33:51.479Z,0.2
2022-09-21T00:38:50.117Z,0.2
2022-09-21T00:43:49.683Z,0.2
2022-09-21T00:48:49.043Z,0.2
2022-09-21T00:53:48.986Z,0.2
2022-09-21T00:58:47.804Z,0.2
2022-09-21T01:03:48.559Z,0.2
2022-09-21T01:08:46.300Z,0.2
2022-09-21T01:13:45.936Z,0.2
2022-09-21T01:18:44.796Z,0.2
2022-09-21T01:23:44.850Z,0.2
2022-09-21T01:28:42.907Z,0.2
2022-09-21T01:33:42.792Z,0.2
2022-09-21T01:38:42.719Z,0.2
2022-09-21T01:43:42.006Z,0.2
2022-09-21T01:48:41.303Z,0.2
2022-09-21T01:53:40.713Z,0.2
2022-09-21T01:58:40.103Z,0.2
2022-09-21T02:03:39.648Z,0.2
2022-09-21T02:08:40.400Z,0.2
2022-09-21T02:13:37.026Z,0.2
2022-09-21T02:18:37.277Z,0.2
2022-09-21T02:23:35.999Z,0.2
2022-09-21T02:28:35.658Z,0.2
2022-09-21T02:33:34.874Z,0.2
2022-09-21T02:38:34.819Z,0.2
2022-09-21T02:43:34.044Z,0.2
2022-09-21T02:48:35.067Z,0.2
2022-09-21T02:53:32.059Z,0.2
2022-09-21T02:58:32.638Z,0.2
2022-09-21T02:59:53.388Z,0.2
2022-09-21T03:04:53.300Z,0.2
2022-09-21T03:09:51.341Z,0.1
2022-09-21T03:14:51.126Z,0.2
2022-09-21T03:19:50.876Z,0.2
2022-09-21T03:24:50.568Z,0.2
2022-09-21T03:29:49.381Z,0.2
2022-09-21T03:34:49.141Z,0.2
2022-09-21T03:39:48.638Z,0.1
2022-09-21T03:44:48.229Z,0.2
2022-09-21T03:49:45.874Z,0.2
2022-09-21T03:54:45.449Z,0.2
2022-09-21T03:59:23.627Z,0.2
2022-09-21T04:04:25.129Z,0.2
2022-09-21T04:09:22.185Z,0.2
2022-09-21T04:14:22.723Z,0.2
2022-09-21T04:19:22.407Z,0.2
2022-09-21T04:24:20.100Z,0.2
2022-09-21T04:29:20.655Z,0.1
2022-09-21T04:34:20.526Z,0.2
2022-09-21T04:39:20.026Z,0.2
2022-09-21T04:44:20.693Z,0.2
2022-09-21T04:49:09.339Z,0.3
2022-09-21T04:54:08.826Z,0.6
2022-09-21T04:58:53.013Z,1
2022-09-21T05:03:53.059Z,1.8
2022-09-21T05:08:52.963Z,2.9
2022-09-21T05:13:52.690Z,3.8
2022-09-21T05:18:51.869Z,4.5
2022-09-21T05:23:51.515Z,5.8
2022-09-21T05:28:50.883Z,7.3
2022-09-21T05:33:50.220Z,8.9
2022-09-21T05:38:49.485Z,10.7
2022-09-21T05:43:49.391Z,12.5
2022-09-21T05:48:48.936Z,14.2
2022-09-21T05:53:48.435Z,15.9
2022-09-21T06:03:32.839Z,19.3
2022-09-21T06:08:32.707Z,21.4
2022-09-21T06:13:32.218Z,23.6
2022-09-21T06:18:31.362Z,26
2022-09-21T06:23:31.244Z,28.9
2022-09-21T06:28:30.910Z,31.9
2022-09-21T06:33:30.085Z,35
2022-09-21T06:38:30.925Z,38.9
2022-09-21T06:43:27.658Z,42.5
2022-09-21T06:48:27.974Z,195
2022-09-21T06:53:27.792Z,209.3
2022-09-21T06:58:25.550Z,221.8
2022-09-21T06:59:45.776Z,226.3
2022-09-21T07:04:46.127Z,241.7
2022-09-21T07:10:14.727Z,257.3
2022-09-21T07:14:45.936Z,272
2022-09-21T07:19:44.952Z,285.2
2022-09-21T07:24:45.391Z,297.8
2022-09-21T07:29:44.883Z,308.9
2022-09-21T07:34:46.228Z,318.7
2022-09-21T07:39:43.405Z,332.4
2022-09-21T07:44:43.768Z,347.9
2022-09-21T07:49:42.773Z,365.9
2022-09-21T07:54:42.806Z,381.6
2022-09-21T07:58:59.574Z,390.7
2022-09-21T08:03:59.863Z,407.5
2022-09-21T08:08:59.910Z,429.1
2022-09-21T08:13:58.768Z,441.4
2022-09-21T08:18:58.215Z,449.1
2022-09-21T08:23:57.857Z,458.4
2022-09-21T08:28:57.734Z,466.5
2022-09-21T08:33:57.014Z,480.9
2022-09-21T08:39:02.938Z,493
2022-09-21T08:43:54.365Z,506.6
2022-09-21T08:48:54.791Z,520
2022-09-21T08:53:53.038Z,531.8
2022-09-21T08:58:52.995Z,540.3
2022-09-21T09:03:52.724Z,551.4
2022-09-21T09:08:52.615Z,555.1
2022-09-21T09:13:51.649Z,571.3
2022-09-21T09:18:51.528Z,579.4
2022-09-21T09:23:51.435Z,587.6
2022-09-21T09:28:54.395Z,599.1
2022-09-21T09:33:51.855Z,610.9
2022-09-21T09:38:48.590Z,620.6
2022-09-21T09:43:48.782Z,630.6
2022-09-21T09:49:00.165Z,641.1
2022-09-21T09:53:46.962Z,654.6
2022-09-21T09:58:45.627Z,659.2
2022-09-21T10:03:45.249Z,669.9
2022-09-21T10:08:45.275Z,677.6
2022-09-21T10:13:44.601Z,696
2022-09-21T10:18:43.523Z,548.5
2022-09-21T10:23:42.442Z,176.2
2022-09-21T10:28:42.658Z,139.1
2022-09-21T10:33:41.616Z,726.4
2022-09-21T10:38:40.155Z,722.3
2022-09-21T10:43:44.930Z,109.3
2022-09-21T10:48:39.708Z,780.1
2022-09-21T10:53:39.122Z,780.3
2022-09-21T10:58:38.785Z,800.2
2022-09-21T10:59:59.627Z,316.8
2022-09-21T11:04:59.044Z,102.5
2022-09-21T11:09:57.760Z,88.5
2022-09-21T11:14:58.827Z,769.9
2022-09-21T11:19:55.272Z,93.5
2022-09-21T11:24:55.083Z,781.5
2022-09-21T11:29:54.101Z,763.8
2022-09-21T11:34:53.917Z,736.6
2022-09-21T11:39:52.293Z,752.2
2022-09-21T11:44:52.802Z,741.2
2022-09-21T11:50:30.456Z,726.6
2022-09-21T11:54:53.942Z,723.4
2022-09-21T11:59:24.726Z,715.9
2022-09-21T12:04:25.588Z,705.2
2022-09-21T12:09:25.348Z,615.1
2022-09-21T12:14:23.450Z,698.6
2022-09-21T12:19:23.613Z,686.1
2022-09-21T12:24:24.078Z,693.1
2022-09-21T12:29:23.562Z,680.7
2022-09-21T12:34:23.725Z,672.2
2022-09-21T12:39:23.039Z,671.6
2022-09-21T12:44:24.375Z,668.7
2022-09-21T12:49:21.374Z,651
2022-09-21T12:54:20.911Z,647.9
2022-09-21T12:58:57.423Z,645
2022-09-21T13:03:56.154Z,635.9
2022-09-21T13:08:56.041Z,620
2022-09-21T13:13:55.673Z,603.3
2022-09-21T13:18:54.734Z,596.1
2022-09-21T13:23:54.168Z,590.4
2022-09-21T13:28:53.540Z,579.8
2022-09-21T13:33:52.938Z,587.2
2022-09-21T13:38:52.489Z,591
2022-09-21T13:43:50.910Z,81.2
2022-09-21T13:48:49.995Z,565.7
2022-09-21T13:53:49.999Z,68.7
2022-09-21T13:58:48.790Z,54.7
2022-09-21T14:03:47.860Z,505.3
2022-09-21T14:08:51.270Z,493.5
2022-09-21T14:13:47.058Z,480.7
2022-09-21T14:18:46.056Z,470.6
2022-09-21T14:23:46.902Z,451.2
2022-09-21T14:28:44.085Z,437
2022-09-21T14:33:44.194Z,416.4
2022-09-21T14:38:43.014Z,400.9
2022-09-21T14:43:43.360Z,390.7
2022-09-21T14:48:41.987Z,397.1
2022-09-21T14:53:40.990Z,364.7
2022-09-21T14:58:46.158Z,210.7
2022-09-21T15:03:40.186Z,349.8
2022-09-21T15:08:39.210Z,344
2022-09-21T15:13:39.037Z,334.2
2022-09-21T15:18:39.018Z,86.7
2022-09-21T15:23:39.056Z,292.4
2022-09-21T15:29:19.295Z,277.3
2022-09-21T15:33:36.710Z,348.2
2022-09-21T15:38:37.133Z,257.5
2022-09-21T15:43:36.194Z,239.3
2022-09-21T15:48:35.928Z,225.1
2022-09-21T15:53:34.677Z,216.2
2022-09-21T15:58:34.957Z,207.6
2022-09-21T15:59:56.160Z,202.7
2022-09-21T16:04:57.459Z,185.4
2022-09-21T16:09:54.098Z,182.3
2022-09-21T16:14:54.033Z,193.5
2022-09-21T16:19:53.394Z,159
2022-09-21T16:24:52.910Z,133.3
2022-09-21T16:29:51.396Z,118.4
2022-09-21T16:34:50.657Z,103.9
2022-09-21T16:39:50.194Z,72.3
2022-09-21T16:44:49.526Z,54.7
2022-09-21T16:49:47.142Z,53.9
2022-09-21T16:54:46.716Z,24.4
2022-09-21T16:59:23.159Z,18.4
2022-09-21T17:04:24.173Z,13.9
2022-09-21T17:09:29.373Z,10.2
2022-09-21T17:14:20.528Z,7.3
2022-09-21T17:19:21.503Z,5
2022-09-21T17:24:07.990Z,3.6
2022-09-21T17:29:07.777Z,3.1
2022-09-21T17:34:06.379Z,2
2022-09-21T17:39:06.344Z,1.1
2022-09-21T17:44:04.162Z,0.6
2022-09-21T17:49:03.970Z,0.4
2022-09-21T17:54:03.464Z,0.3
2022-09-21T17:58:50.977Z,0.3
2022-09-21T18:03:50.290Z,0.2
2022-09-21T18:08:49.728Z,0.2
2022-09-21T18:13:49.511Z,0.2
2022-09-21T18:18:48.433Z,0.2
2022-09-21T18:23:49.150Z,0.2
2022-09-21T18:28:46.144Z,0.2
2022-09-21T18:33:46.303Z,0.2
2022-09-21T18:38:45.617Z,0.2
2022-09-21T18:43:45.447Z,0.2
2022-09-21T18:48:52.047Z,0.2
2022-09-21T18:53:43.591Z,0.2
2022-09-21T18:58:43.034Z,0.2
2022-09-21T19:00:05.963Z,0.2
2022-09-21T19:05:03.519Z,0.2
2022-09-21T19:10:03.014Z,0.1
2022-09-21T19:15:02.238Z,0.2
2022-09-21T19:20:01.434Z,0.2
2022-09-21T19:24:59.718Z,0.2
2022-09-21T19:29:58.735Z,0.2
2022-09-21T19:34:58.963Z,0.2
2022-09-21T19:39:58.172Z,0.1
2022-09-21T19:44:57.303Z,0.2
2022-09-21T19:49:56.664Z,0.2
2022-09-21T19:54:56.977Z,0.2
2022-09-21T19:59:16.819Z,0.1
2022-09-21T20:04:26.646Z,0.2
2022-09-21T20:09:26.607Z,0.2
2022-09-21T20:14:26.330Z,0.2
2022-09-21T20:19:27.296Z,0.2
2022-09-21T20:24:24.378Z,0.2
2022-09-21T20:29:23.787Z,0.2
2022-09-21T20:34:24.562Z,0.2
2022-09-21T20:39:21.491Z,0.2
2022-09-21T20:44:21.201Z,0.2
2022-09-21T20:49:21.086Z,0.2
2022-09-21T20:54:08.307Z,0.2
2022-09-21T20:58:24.041Z,0.2
2022-09-21T21:03:24.206Z,0.2
2022-09-21T21:08:23.361Z,0.2
2022-09-21T21:13:22.567Z,0.2
2022-09-21T21:18:22.026Z,0.2
2022-09-21T21:23:21.835Z,0.2
2022-09-21T21:28:21.395Z,0.2
2022-09-21T21:33:21.911Z,0.2
2022-09-21T21:38:18.884Z,0.2
2022-09-21T21:43:18.697Z,0.2
2022-09-21T21:48:17.802Z,0.2
2022-09-21T21:53:17.327Z,0.2
2022-09-21T21:59:38.022Z,0.1
2022-09-21T22:04:36.994Z,0.2
2022-09-21T22:09:37.737Z,0.2
2022-09-21T22:14:34.950Z,0.2
2022-09-21T22:19:34.746Z,0.2
2022-09-21T22:24:34.996Z,0.2
2022-09-21T22:29:34.566Z,0.2
2022-09-21T22:34:33.577Z,0.2
2022-09-21T22:39:33.795Z,0.2
2022-09-21T22:44:33.106Z,0.2
2022-09-21T22:49:33.857Z,0.2
2022-09-21T22:54:31.069Z,0.2
2022-09-21T22:58:50.818Z,0.2
2022-09-21T23:03:50.223Z,0.2
2022-09-21T23:08:49.407Z,0.2
2022-09-21T23:13:47.655Z,0.2
2022-09-21T23:18:47.365Z,0.2
2022-09-21T23:23:46.860Z,0.2
2022-09-21T23:28:47.764Z,0.2
2022-09-21T23:33:44.847Z,0.2
2022-09-21T23:38:45.107Z,0.2
2022-09-21T23:43:43.725Z,0.2
2022-09-21T23:48:43.228Z,0.2
2022-09-21T23:53:41.514Z,0.2
2022-09-21T23:58:41.755Z,0.2
